Terminal Aerodrome Forecast
Issued by NWS Paducah, KY

Home | Current Version | Previous Version | Text Only | Print | Product List | Glossary On
Versions: 1 2 3 4 5 6 7 8 9 10 11 12 13 14 15
000
FTUS43 KPAH 191942 AAA
TAFEVV
TAF AMD
KEVV 191942Z 1920/2018 09005KT 4SM -SHRA BR OVC015
      TEMPO 1920/1922 2SM -TSRA BR OVC010CB
     FM192200 20007KT 5SM BR OVC020
     FM200000 22007KT P6SM VCTS BKN030CB
     FM200800 19006KT 4SM -SHRA BR BKN015 PROB30 2008/2014 2SM TSRA
      BR OVC008CB
     FM201400 27012G20KT P6SM BKN025=

USA.gov is the U.S. government's official web portal to all federal, state and local government web resources and services.